Time;durP1;ratioP1;P1;durP2;ratioP2;P2;SDS_P1;SDS_P2;PMS_P1;PMS_P2;Temp;Humidity;BMP_temperature;BMP_pressure;BME280_temperature;BME280_humidity;BME280_pressure;Samples;Min_cycle;Max_cycle;Signal;HPM_P1;HPM_P2
2022/08/16 00:02:32;;;;;;;2.42;1.60;;;;;;;25.41;100.00;95773.69;5088961;28;20111;-52
2022/08/16 00:05:01;;;;;;;2.00;1.60;;;;;;;25.07;100.00;95775.75;5084254;28;20080;-50
2022/08/16 00:07:30;;;;;;;1.88;1.67;;;;;;;24.85;100.00;95778.47;5085982;28;20072;-49
2022/08/16 00:10:00;;;;;;;1.85;1.67;;;;;;;25.26;100.00;95774.38;5087629;28;20079;-52
2022/08/16 00:12:30;;;;;;;2.10;1.90;;;;;;;25.66;100.00;95772.31;5083942;28;20076;-48
2022/08/16 00:15:01;;;;;;;2.42;1.63;;;;;;;25.46;100.00;95770.22;5087714;28;20094;-53
2022/08/16 00:17:29;;;;;;;;;;;;;;;25.69;100.00;95771.78;5087705;28;20072;-48
2022/08/16 00:20:18;;;;;;;2.88;1.70;;;;;;;25.08;100.00;95778.19;5084543;28;19967;-55
2022/08/16 00:22:48;;;;;;;1.73;1.50;;;;;;;25.29;100.00;95781.97;5084702;28;20534;-50
2022/08/16 00:25:21;;;;;;;2.00;1.60;;;;;;;25.44;100.00;95791.28;5086503;28;20079;-47
2022/08/16 00:28:11;;;;;;;1.77;1.50;;;;;;;25.50;100.00;95777.59;5080834;28;20079;-55
2022/08/16 00:30:39;;;;;;;;;;;;;;;25.62;100.00;95774.69;5087674;28;20060;-50
2022/08/16 00:33:09;;;;;;;1.80;1.70;;;;;;;25.61;100.00;95774.97;5086395;28;19951;-50
2022/08/16 00:35:38;;;;;;;1.67;1.50;;;;;;;25.90;100.00;95778.22;5087193;28;20051;-50
2022/08/16 00:38:07;;;;;;;2.90;1.70;;;;;;;25.72;100.00;95780.19;5086918;28;20087;-52
2022/08/16 00:40:56;;;;;;;5.15;1.70;;;;;;;25.93;100.00;95775.00;5044122;28;20476;-47
2022/08/16 00:43:28;;;;;;;3.03;1.67;;;;;;;25.92;100.00;95776.06;5047675;28;21701;-51
2022/08/16 00:46:18;;;;;;;5.25;2.05;;;;;;;25.60;100.00;95771.44;5046655;28;20123;-49
2022/08/16 00:49:04;;;;;;;2.08;1.70;;;;;;;26.13;100.00;95774.34;5046699;28;20095;-48
2022/08/16 00:51:32;;;;;;;2.35;1.65;;;;;;;26.17;100.00;95773.53;5045553;28;20092;-47
2022/08/16 00:54:01;;;;;;;2.38;1.77;;;;;;;25.78;100.00;95787.28;5047209;28;20072;-52
2022/08/16 00:56:33;;;;;;;2.40;1.88;;;;;;;25.74;100.00;95786.16;5046886;28;20064;-49
2022/08/16 00:59:26;;;;;;;3.00;1.80;;;;;;;26.09;100.00;95774.03;5070422;28;20529;-50
2022/08/16 01:01:54;;;;;;;1.98;1.73;;;;;;;25.93;100.00;95783.09;5086689;28;20674;-47
2022/08/16 01:04:25;;;;;;;2.53;1.70;;;;;;;26.00;100.00;95781.81;5085552;28;20670;-54
2022/08/16 01:06:58;;;;;;;2.28;1.83;;;;;;;25.95;100.00;95783.66;5085063;28;20090;-52
2022/08/16 01:09:29;;;;;;;2.47;1.80;;;;;;;25.86;100.00;95774.41;5087349;28;20091;-48
2022/08/16 01:12:02;;;;;;;6.07;2.10;;;;;;;25.72;100.00;95777.50;5085873;28;20083;-51
2022/08/16 01:14:35;;;;;;;2.58;1.63;;;;;;;26.07;100.00;95772.66;5085119;28;20083;-50
2022/08/16 01:17:04;;;;;;;2.70;1.90;;;;;;;25.82;100.00;95776.00;5081697;28;20071;-47
2022/08/16 01:19:39;;;;;;;4.00;1.80;;;;;;;25.71;100.00;95770.47;5086259;28;20454;-49
2022/08/16 01:22:14;;;;;;;2.85;2.03;;;;;;;25.71;100.00;95764.25;5084972;28;20048;-53
2022/08/16 01:25:07;;;;;;;3.13;1.98;;;;;;;26.19;100.00;95768.72;5085888;28;20098;-52
2022/08/16 01:27:39;;;;;;;3.45;2.08;;;;;;;25.92;100.00;95763.38;5083949;28;20076;-50
2022/08/16 01:30:11;;;;;;;2.50;1.85;;;;;;;26.00;100.00;95762.88;5085285;28;20080;-52
2022/08/16 01:32:48;;;;;;;3.42;2.20;;;;;;;26.17;100.00;95762.72;5086562;28;20076;-52
2022/08/16 01:35:36;;;;;;;4.03;2.00;;;;;;;26.21;100.00;95760.31;5086987;28;20082;-49
2022/08/16 01:38:18;;;;;;;2.00;1.80;;;;;;;25.87;100.00;95760.63;5086675;28;20098;-51
2022/08/16 01:40:50;;;;;;;2.38;1.80;;;;;;;26.15;100.00;95755.94;5082104;28;20094;-58
2022/08/16 01:43:19;;;;;;;2.55;1.90;;;;;;;25.58;100.00;95766.31;5084590;28;20106;-47
2022/08/16 01:45:54;;;;;;;2.22;2.03;;;;;;;25.95;100.00;95767.47;5078787;28;20551;-49
2022/08/16 01:48:27;;;;;;;3.78;1.80;;;;;;;25.47;100.00;95761.09;5084415;28;20052;-46
2022/08/16 01:50:56;;;;;;;2.50;1.77;;;;;;;25.61;100.00;95764.16;5086096;28;20465;-52
2022/08/16 01:53:44;;;;;;;4.20;2.00;;;;;;;25.84;100.00;95763.03;5083683;28;20079;-47
2022/08/16 01:56:25;;;;;;;2.30;1.80;;;;;;;25.92;100.00;95757.16;5084033;28;20138;-49
2022/08/16 01:58:55;;;;;;;2.88;1.77;;;;;;;25.94;100.00;95763.09;5082888;28;20498;-51
2022/08/16 02:01:25;;;;;;;2.25;1.90;;;;;;;25.93;100.00;95762.28;5086309;28;20087;-51
2022/08/16 02:03:56;;;;;;;4.28;2.05;;;;;;;25.89;100.00;95757.69;5083009;28;20075;-50
2022/08/16 02:06:39;;;;;;;3.15;2.00;;;;;;;25.77;100.00;95768.63;5085222;28;20055;-52
2022/08/16 02:09:14;;;;;;;2.70;2.10;;;;;;;25.87;100.00;95760.63;5086150;28;20071;-48
2022/08/16 02:11:48;;;;;;;3.00;2.00;;;;;;;25.72;100.00;95755.09;5083486;28;20557;-52
2022/08/16 02:14:22;;;;;;;2.25;1.80;;;;;;;25.84;100.00;95753.03;5083832;28;20441;-52
2022/08/16 02:16:54;;;;;;;2.92;2.20;;;;;;;25.83;100.00;95747.91;5074750;28;20552;-51
2022/08/16 02:19:24;;;;;;;3.47;2.03;;;;;;;25.90;100.00;95743.91;5079815;28;20087;-53
2022/08/16 02:22:15;;;;;;;2.80;2.03;;;;;;;25.88;100.00;95743.38;5077016;28;21047;-52
2022/08/16 02:25:07;;;;;;;3.33;2.00;;;;;;;25.85;100.00;95741.19;5085090;28;20281;-53
2022/08/16 02:27:40;;;;;;;4.55;2.17;;;;;;;25.68;100.00;95746.69;5080502;28;20491;-48
2022/08/16 02:30:13;;;;;;;3.00;2.13;;;;;;;25.64;100.00;95748.28;5078840;28;20079;-50
2022/08/16 02:33:02;;;;;;;2.97;2.30;;;;;;;25.51;100.00;95741.41;5081866;28;20084;-48
2022/08/16 02:35:31;;;;;;;4.18;2.13;;;;;;;25.49;100.00;95742.72;5075160;28;20080;-48
2022/08/16 02:38:00;;;;;;;3.05;2.20;;;;;;;25.25;100.00;95748.44;5078937;28;20084;-56
2022/08/16 02:40:38;;;;;;;2.58;2.20;;;;;;;25.53;100.00;95738.44;5075684;28;20080;-51
2022/08/16 02:43:11;;;;;;;3.40;2.15;;;;;;;25.18;100.00;95737.03;5080526;28;20154;-48
2022/08/16 02:45:40;;;;;;;4.28;2.40;;;;;;;25.44;100.00;95742.69;5079200;28;20067;-52
2022/08/16 02:48:10;;;;;;;;;;;;;;;25.49;100.00;95729.22;5078497;28;20075;-54
2022/08/16 02:50:59;;;;;;;2.50;2.00;;;;;;;25.34;100.00;95732.59;5072821;28;19950;-51
2022/08/16 02:53:39;;;;;;;3.47;2.13;;;;;;;25.15;100.00;95734.84;5076995;28;20067;-49
2022/08/16 02:56:11;;;;;;;3.25;2.28;;;;;;;24.92;100.00;95735.94;5079352;28;20064;-55
2022/08/16 02:58:45;;;;;;;3.53;2.25;;;;;;;25.06;100.00;95734.47;5078431;28;20490;-54
2022/08/16 03:01:15;;;;;;;3.45;2.40;;;;;;;25.20;100.00;95721.41;5078404;28;20650;-56
2022/08/16 03:04:01;;;;;;;3.13;2.50;;;;;;;24.69;100.00;95737.00;5089641;28;20036;-56
2022/08/16 03:06:50;;;;;;;4.30;2.40;;;;;;;25.24;100.00;95738.72;5079428;28;20059;-49
2022/08/16 03:09:24;;;;;;;2.50;2.30;;;;;;;25.02;100.00;95741.44;5080844;28;20083;-49
2022/08/16 03:11:57;;;;;;;3.30;2.30;;;;;;;25.03;100.00;95739.56;5084036;28;20068;-52
2022/08/16 03:14:29;;;;;;;2.58;2.35;;;;;;;25.19;100.00;95741.38;5078689;28;20473;-53
2022/08/16 03:16:58;;;;;;;2.90;2.00;;;;;;;25.01;100.00;95745.19;5084182;28;20047;-52
2022/08/16 03:19:31;;;;;;;3.97;2.58;;;;;;;24.76;100.00;95742.22;5080059;28;20068;-53
2022/08/16 03:22:21;;;;;;;3.03;2.50;;;;;;;24.97;100.00;95748.66;5083793;28;20063;-51
2022/08/16 03:24:58;;;;;;;2.85;2.50;;;;;;;24.97;100.00;95752.16;5081064;28;20071;-50
2022/08/16 03:27:29;;;;;;;2.90;2.42;;;;;;;24.94;100.00;95755.34;5083842;28;20393;-54
2022/08/16 03:30:04;;;;;;;3.05;2.50;;;;;;;24.49;100.00;95769.91;5083698;28;20032;-55
2022/08/16 03:32:46;;;;;;;4.03;2.63;;;;;;;24.27;100.00;95767.16;5082204;28;20083;-55
2022/08/16 03:35:21;;;;;;;3.63;2.28;;;;;;;24.49;100.00;95761.81;5084035;28;20083;-52
2022/08/16 03:37:55;;;;;;;5.35;2.30;;;;;;;24.66;100.00;95761.78;5076808;28;20502;-52
2022/08/16 03:40:33;;;;;;;3.08;2.58;;;;;;;24.59;100.00;95761.16;5079269;28;20582;-54
2022/08/16 03:43:04;;;;;;;6.30;2.42;;;;;;;24.24;100.00;95766.84;5075620;28;20047;-54
2022/08/16 03:45:50;;;;;;;3.35;2.30;;;;;;;23.90;100.00;95774.94;5081646;28;20075;-54
2022/08/16 03:48:22;;;;;;;2.45;2.17;;;;;;;24.45;100.00;95776.06;5084149;28;20071;-55
2022/08/16 03:51:08;;;;;;;4.00;2.42;;;;;;;24.30;100.00;95766.66;5083956;28;20111;-54
2022/08/16 03:53:40;;;;;;;4.25;2.55;;;;;;;24.08;100.00;95765.78;5081478;28;20387;-55
2022/08/16 03:56:09;;;;;;;3.00;2.20;;;;;;;24.26;100.00;95772.78;5085777;28;20094;-51
2022/08/16 03:58:48;;;;;;;4.47;2.50;;;;;;;24.22;100.00;95774.34;5078669;28;20055;-50
2022/08/16 04:01:22;;;;;;;3.55;2.70;;;;;;;24.15;100.00;95771.81;5078603;28;20036;-58
2022/08/16 04:03:56;;;;;;;3.17;2.70;;;;;;;24.13;100.00;95777.47;5080986;28;20036;-58
2022/08/16 04:06:27;;;;;;;17.33;15.63;;;;;;;23.63;100.00;95772.88;5078753;28;20522;-59
2022/08/16 04:08:56;;;;;;;3.80;2.83;;;;;;;23.43;100.00;95776.06;5086345;28;20090;-55
2022/08/16 04:11:24;;;;;;;4.28;2.88;;;;;;;23.50;100.00;95775.06;5090513;28;20578;-51
2022/08/16 04:13:53;;;;;;;3.40;2.70;;;;;;;23.43;100.00;95777.91;5085344;28;20114;-57
2022/08/16 04:16:37;;;;;;;6.30;2.67;;;;;;;23.83;100.00;95772.41;5080097;28;20102;-55
2022/08/16 04:19:05;;;;;;;3.42;2.63;;;;;;;23.93;100.00;95775.28;5084703;28;20533;-57
2022/08/16 04:21:36;;;;;;;4.40;2.70;;;;;;;23.84;100.00;95782.13;5088617;28;20083;-53
2022/08/16 04:24:14;;;;;;;3.58;2.53;;;;;;;23.76;100.00;95782.53;5092089;28;20063;-55
2022/08/16 04:26:44;;;;;;;6.18;2.75;;;;;;;23.84;100.00;95782.13;5085424;28;20090;-57
2022/08/16 04:29:14;;;;;;;3.45;2.60;;;;;;;23.79;100.00;95776.66;5078146;28;20032;-57
2022/08/16 04:31:54;;;;;;;3.97;2.70;;;;;;;23.87;100.00;95776.25;5085262;28;20047;-57
2022/08/16 04:34:27;;;;;;;3.90;2.85;;;;;;;23.89;100.00;95776.03;5083308;28;20122;-55
2022/08/16 04:36:57;;;;;;;;;;;;;;;24.00;100.00;95772.41;5081556;28;20499;-55
2022/08/16 04:39:31;;;;;;;3.50;2.70;;;;;;;23.97;100.00;95782.88;5078204;28;19959;-56
2022/08/16 04:42:16;;;;;;;3.97;3.00;;;;;;;23.88;100.00;95785.13;5084221;28;20528;-57
2022/08/16 04:44:45;;;;;;;9.27;3.15;;;;;;;23.84;100.00;95784.00;5077401;28;20072;-59
2022/08/16 04:47:30;;;;;;;4.70;3.00;;;;;;;23.91;100.00;95776.56;5087769;28;20072;-55
2022/08/16 04:50:04;;;;;;;5.50;3.08;;;;;;;24.05;100.00;95785.94;5087508;28;20197;-56
2022/08/16 04:52:35;;;;;;;4.65;2.97;;;;;;;24.25;100.00;95779.25;5086956;28;20086;-55
2022/08/16 04:55:08;;;;;;;3.97;2.72;;;;;;;24.43;100.00;95792.47;5082615;28;20082;-53
2022/08/16 04:57:40;;;;;;;4.55;2.95;;;;;;;24.61;100.00;95788.69;5082102;28;20083;-56
2022/08/16 05:00:12;;;;;;;4.38;3.38;;;;;;;26.28;100.00;95785.22;5082427;28;20437;-56
2022/08/16 05:03:04;;;;;;;5.72;3.60;;;;;;;27.50;100.00;95790.41;5082004;28;20079;-53
2022/08/16 05:05:36;;;;;;;3.95;3.17;;;;;;;28.10;93.75;95794.25;5080942;28;20070;-55
2022/08/16 05:08:12;;;;;;;4.47;2.80;;;;;;;28.10;95.60;95799.69;5091010;28;20099;-55
2022/08/16 05:11:01;;;;;;;5.18;3.20;;;;;;;27.43;100.00;95792.56;5083741;28;20696;-53
2022/08/16 05:13:33;;;;;;;4.43;2.95;;;;;;;27.38;100.00;95798.78;5074088;28;20474;-54
2022/08/16 05:16:11;;;;;;;4.75;2.72;;;;;;;27.08;100.00;95796.78;5078864;28;20064;-55
2022/08/16 05:18:52;;;;;;;3.47;2.33;;;;;;;27.73;100.00;95791.78;5080779;28;20116;-57
2022/08/16 05:21:27;;;;;;;3.08;2.28;;;;;;;29.28;79.67;95799.41;5077333;28;20060;-54
2022/08/16 05:24:03;;;;;;;3.05;2.20;;;;;;;28.99;84.19;95807.38;5082653;28;20510;-55
2022/08/16 05:26:36;;;;;;;3.28;2.28;;;;;;;28.07;97.13;95799.41;5090796;28;20083;-55
2022/08/16 05:29:10;;;;;;;3.28;2.58;;;;;;;27.99;100.00;95795.34;5086554;28;20083;-54
2022/08/16 05:31:42;;;;;;;3.80;2.10;;;;;;;28.43;95.49;95794.81;5081824;28;20090;-57
2022/08/16 05:34:20;;;;;;;3.72;2.50;;;;;;;27.83;100.00;95796.44;5077256;28;20075;-57
2022/08/16 05:36:49;;;;;;;7.88;2.70;;;;;;;28.19;99.12;95796.44;5083441;28;20084;-55
2022/08/16 05:39:19;;;;;;;6.05;2.10;;;;;;;27.83;98.60;95804.56;5083382;28;20080;-53
2022/08/16 05:41:50;;;;;;;4.50;2.22;;;;;;;27.88;100.00;95808.09;5073729;28;20088;-57
2022/08/16 05:44:20;;;;;;;7.50;2.42;;;;;;;27.44;100.00;95807.72;5084627;28;20079;-53
2022/08/16 05:46:53;;;;;;;4.70;2.55;;;;;;;27.53;100.00;95808.00;5087610;28;20076;-57
2022/08/16 05:49:24;;;;;;;3.65;2.42;;;;;;;26.95;100.00;95806.19;5077825;28;20076;-57
2022/08/16 05:52:06;;;;;;;4.30;2.50;;;;;;;26.66;100.00;95804.97;5083507;28;20086;-55
2022/08/16 05:54:39;;;;;;;6.13;2.47;;;;;;;26.84;100.00;95809.94;5088782;28;20117;-57
2022/08/16 05:57:15;;;;;;;3.83;2.38;;;;;;;27.19;100.00;95805.78;5089572;28;20076;-56
2022/08/16 05:59:44;;;;;;;3.50;2.58;;;;;;;27.29;100.00;95813.94;5075925;28;20077;-54
2022/08/16 06:02:13;;;;;;;4.97;2.57;;;;;;;27.12;100.00;95807.88;5082875;28;20076;-53
2022/08/16 06:04:43;;;;;;;3.80;2.75;;;;;;;27.36;100.00;95811.78;5075991;28;20457;-55
2022/08/16 06:07:13;;;;;;;3.42;2.45;;;;;;;27.23;100.00;95814.97;5089219;28;20083;-53
2022/08/16 06:09:57;;;;;;;2.88;2.05;;;;;;;27.18;100.00;95817.66;5083014;28;20071;-51
2022/08/16 06:12:28;;;;;;;3.78;2.20;;;;;;;27.10;100.00;95818.16;5088783;28;20092;-51
2022/08/16 06:14:58;;;;;;;5.15;2.28;;;;;;;26.92;100.00;95822.94;5082296;28;20079;-50
2022/08/16 06:17:27;;;;;;;5.07;2.28;;;;;;;27.56;100.00;95824.53;5076591;28;20597;-54
2022/08/16 06:20:16;;;;;;;7.03;2.90;;;;;;;26.99;100.00;95825.41;5075615;28;20123;-48
2022/08/16 06:22:54;;;;;;;;;;;;;;;26.55;100.00;95817.63;5069446;28;20643;-53
2022/08/16 06:25:32;;;;;;;4.32;2.53;;;;;;;26.49;100.00;95818.66;5086199;28;19947;-49
2022/08/16 06:28:08;;;;;;;3.28;2.33;;;;;;;27.47;100.00;95823.44;5076258;28;20581;-50
2022/08/16 06:30:45;;;;;;;3.65;2.40;;;;;;;27.71;100.00;95822.94;5076116;28;20067;-48
2022/08/16 06:33:15;;;;;;;3.57;2.47;;;;;;;27.96;100.00;95814.06;5075517;28;20083;-52
2022/08/16 06:35:50;;;;;;;8.57;2.50;;;;;;;27.34;100.00;95816.63;5076299;28;20071;-52
2022/08/16 06:38:27;;;;;;;6.10;2.50;;;;;;;27.93;100.00;95810.78;5079377;28;20076;-52
2022/08/16 06:41:03;;;;;;;4.85;2.30;;;;;;;27.54;100.00;95815.06;5077704;28;20056;-55
2022/08/16 06:43:33;;;;;;;2.72;2.40;;;;;;;28.17;90.47;95811.06;5073548;28;20083;-56
2022/08/16 06:46:07;;;;;;;4.05;2.30;;;;;;;28.31;85.85;95826.78;5083131;28;20063;-48
2022/08/16 06:48:39;;;;;;;5.15;2.17;;;;;;;27.86;90.65;95833.81;5082847;28;20083;-53
2022/08/16 06:51:12;;;;;;;3.20;2.10;;;;;;;27.87;87.08;95833.56;5071588;28;20064;-51
2022/08/16 06:53:42;;;;;;;4.97;1.95;;;;;;;27.91;86.85;95831.13;5077305;28;20139;-47
2022/08/16 06:56:10;;;;;;;3.90;2.13;;;;;;;27.41;87.38;95838.03;5069336;28;20545;-56
2022/08/16 06:58:54;;;;;;;3.58;2.10;;;;;;;28.13;80.40;95830.88;5073364;28;20072;-51
2022/08/16 07:01:23;;;;;;;4.07;2.00;;;;;;;27.90;82.19;95838.44;5079951;28;20079;-54
2022/08/16 07:04:12;;;;;;;10.35;2.17;;;;;;;28.50;72.81;95836.03;5087908;28;20075;-53
2022/08/16 07:07:02;;;;;;;6.03;1.85;;;;;;;28.30;81.95;95836.81;5073820;28;20063;-56
2022/08/16 07:09:31;;;;;;;2.40;2.00;;;;;;;28.97;68.64;95837.50;5076573;28;20060;-53
2022/08/16 07:12:30;;;;;;;4.65;2.13;;;;;;;29.19;64.95;95831.78;5089483;28;20091;-53
2022/08/16 07:15:24;;;;;;;4.07;1.92;;;;;;;29.37;61.55;95833.03;5057336;28;20162;-48
2022/08/16 07:17:52;;;;;;;3.50;1.98;;;;;;;28.51;63.07;95836.84;5078822;28;20068;-53
2022/08/16 07:20:24;;;;;;;3.28;2.10;;;;;;;29.34;61.14;95833.59;5074268;28;20092;-55
2022/08/16 07:23:13;;;;;;;3.70;2.00;;;;;;;29.04;59.62;95837.25;5079601;28;20080;-52
2022/08/16 07:25:43;;;;;;;4.40;2.15;;;;;;;29.91;57.33;95836.84;5077086;28;20044;-53
2022/08/16 07:28:12;;;;;;;6.13;2.30;;;;;;;30.00;57.11;95829.69;5080078;28;20080;-57
2022/08/16 07:30:48;;;;;;;3.70;2.05;;;;;;;29.72;58.49;95831.25;5078597;28;20098;-52
2022/08/16 07:33:17;;;;;;;2.28;1.83;;;;;;;29.37;60.49;95830.34;5076805;28;20139;-50
2022/08/16 07:36:07;;;;;;;3.38;2.10;;;;;;;29.22;60.59;95827.69;5075379;28;20460;-53
2022/08/16 07:38:38;;;;;;;6.45;2.55;;;;;;;28.51;58.99;95825.97;5083379;28;20494;-56
2022/08/16 07:41:07;;;;;;;7.45;2.10;;;;;;;28.98;57.75;95819.34;5085582;28;20091;-56
2022/08/16 07:43:37;;;;;;;4.15;2.40;;;;;;;29.42;51.93;95818.63;5082067;28;20273;-54
2022/08/16 07:46:09;;;;;;;3.70;2.50;;;;;;;29.96;48.96;95818.56;5084197;28;20079;-52
2022/08/16 07:48:57;;;;;;;4.28;2.20;;;;;;;29.22;53.94;95816.84;5088642;28;20266;-47
2022/08/16 07:51:33;;;;;;;5.18;2.30;;;;;;;29.85;51.71;95825.19;5090441;28;20074;-54
2022/08/16 07:54:08;;;;;;;4.50;2.50;;;;;;;30.30;49.74;95819.69;5085011;28;20471;-50
2022/08/16 07:56:41;;;;;;;4.93;2.25;;;;;;;30.65;47.13;95813.88;5078911;28;20579;-50
2022/08/16 07:59:10;;;;;;;3.33;2.60;;;;;;;30.72;45.17;95808.09;5089371;28;20534;-54
2022/08/16 08:01:40;;;;;;;3.97;2.72;;;;;;;30.97;44.37;95812.47;5086081;28;20323;-56
2022/08/16 08:04:11;;;;;;;4.40;2.53;;;;;;;30.46;45.25;95827.44;5073230;28;20072;-55
2022/08/16 08:06:41;;;;;;;4.15;2.70;;;;;;;30.70;45.71;95821.22;5079179;28;20091;-51
2022/08/16 08:09:11;;;;;;;4.28;2.85;;;;;;;30.32;46.14;95818.31;5085433;28;20518;-52
2022/08/16 08:11:40;;;;;;;5.97;2.53;;;;;;;30.19;46.23;95822.50;5087663;28;20082;-58
2022/08/16 08:14:27;;;;;;;5.10;2.80;;;;;;;31.31;43.84;95825.13;5081545;28;20055;-56
2022/08/16 08:16:57;;;;;;;3.30;2.53;;;;;;;30.92;43.06;95820.72;5074849;28;20075;-56
2022/08/16 08:19:28;;;;;;;4.60;2.58;;;;;;;30.77;44.42;95834.50;5082669;28;20070;-54
2022/08/16 08:21:57;;;;;;;4.88;2.60;;;;;;;31.15;44.35;95827.25;5091153;28;20455;-56
2022/08/16 08:24:36;;;;;;;5.20;2.90;;;;;;;30.99;43.44;95832.06;5085083;28;20087;-55
2022/08/16 08:27:07;;;;;;;5.10;2.83;;;;;;;31.42;43.08;95832.94;5091850;28;20435;-54
2022/08/16 08:29:36;;;;;;;;;;;;;;;31.68;42.73;95827.94;5091470;28;20080;-54
2022/08/16 08:32:10;;;;;;;4.35;2.50;;;;;;;32.06;42.17;95827.13;5084766;28;20397;-53
2022/08/16 08:35:00;;;;;;;5.35;3.00;;;;;;;31.55;42.13;95828.66;5078237;28;20568;-55
2022/08/16 08:37:31;;;;;;;8.02;2.70;;;;;;;31.51;42.46;95833.06;5078454;28;20068;-56
2022/08/16 08:40:22;;;;;;;5.80;2.70;;;;;;;31.38;43.10;95833.78;5083873;28;20080;-56
2022/08/16 08:42:55;;;;;;;3.70;2.55;;;;;;;31.52;42.36;95832.00;5079919;28;20090;-55
2022/08/16 08:45:28;;;;;;;4.50;2.67;;;;;;;30.30;44.42;95836.81;5087197;28;20076;-57
2022/08/16 08:48:17;;;;;;;3.40;2.60;;;;;;;30.94;44.28;95840.31;5079456;28;20088;-52
2022/08/16 08:51:03;;;;;;;5.28;2.70;;;;;;;31.84;41.66;95831.25;5079954;28;20589;-57
2022/08/16 08:53:32;;;;;;;4.10;2.70;;;;;;;32.06;41.13;95838.84;5078951;28;20110;-57
2022/08/16 08:56:05;;;;;;;4.63;2.80;;;;;;;31.96;40.59;95839.00;5087451;28;20437;-54
2022/08/16 08:58:52;;;;;;;4.05;2.90;;;;;;;31.85;39.68;95838.31;5085988;28;20082;-58
2022/08/16 09:01:31;;;;;;;4.60;2.92;;;;;;;32.09;39.62;95830.06;5089846;28;20086;-57
2022/08/16 09:04:11;;;;;;;3.10;2.70;;;;;;;32.50;39.37;95836.78;5085079;28;20071;-55
2022/08/16 09:06:44;;;;;;;3.90;2.92;;;;;;;31.01;40.13;95839.97;5078550;28;20091;-58
2022/08/16 09:09:13;;;;;;;5.90;2.92;;;;;;;31.20;41.55;95835.34;5082803;28;20083;-57
2022/08/16 09:11:46;;;;;;;5.47;2.80;;;;;;;31.84;40.12;95831.25;5078373;28;20085;-56
2022/08/16 09:14:28;;;;;;;3.75;2.80;;;;;;;31.82;39.55;95838.91;5085373;28;20075;-52
2022/08/16 09:16:56;;;;;;;5.20;2.85;;;;;;;31.72;39.57;95839.06;5079573;28;20083;-53
2022/08/16 09:19:31;;;;;;;4.20;2.75;;;;;;;32.10;38.06;95823.50;5069975;28;20095;-58
2022/08/16 09:22:02;;;;;;;;;;;;;;;31.87;38.85;95822.50;5078040;28;20080;-56
2022/08/16 09:24:31;;;;;;;;;;;;;;;31.74;39.57;95833.31;5076950;28;19962;-55
2022/08/16 09:27:21;;;;;;;3.60;2.80;;;;;;;31.62;39.40;95834.53;5085801;28;19982;-55
2022/08/16 09:29:52;;;;;;;7.57;2.88;;;;;;;31.53;38.10;95835.53;5082795;28;20553;-54
2022/08/16 09:32:28;;;;;;;5.25;3.00;;;;;;;32.38;37.72;95824.41;5075791;28;20545;-55
2022/08/16 09:34:58;;;;;;;4.55;3.00;;;;;;;31.20;39.83;95828.00;5084351;28;20078;-53
2022/08/16 09:37:29;;;;;;;4.20;3.00;;;;;;;31.45;39.69;95834.25;5084459;28;20084;-55
2022/08/16 09:40:06;;;;;;;3.55;2.80;;;;;;;31.85;38.78;95829.31;5084510;28;20086;-56
2022/08/16 09:42:57;;;;;;;4.15;2.67;;;;;;;32.64;37.44;95832.16;5085735;28;20048;-56
2022/08/16 09:45:37;;;;;;;3.83;2.60;;;;;;;31.97;38.83;95823.44;5086986;28;20072;-55
2022/08/16 09:48:06;;;;;;;4.47;2.75;;;;;;;31.98;38.39;95827.81;5080219;28;20068;-57
2022/08/16 09:50:37;;;;;;;4.00;3.00;;;;;;;31.27;39.83;95829.56;5089192;28;20441;-54
2022/08/16 09:53:10;;;;;;;4.13;2.90;;;;;;;30.78;40.06;95825.22;5086027;28;20659;-58
2022/08/16 09:55:46;;;;;;;7.07;2.90;;;;;;;31.37;39.34;95822.09;5080434;28;20582;-54
2022/08/16 09:58:18;;;;;;;5.25;3.00;;;;;;;30.84;41.01;95824.91;5083864;28;20667;-56
2022/08/16 10:01:06;;;;;;;4.68;3.30;;;;;;;31.07;39.95;95820.53;5089006;28;20127;-55
2022/08/16 10:03:39;;;;;;;5.63;2.85;;;;;;;32.48;38.17;95815.25;5085906;28;20440;-50
2022/08/16 10:06:27;;;;;;;5.72;2.92;;;;;;;32.23;38.58;95808.28;5089160;28;20094;-56
2022/08/16 10:09:01;;;;;;;4.70;2.78;;;;;;;31.76;38.22;95820.19;5082188;28;20462;-53
2022/08/16 10:14:23;;;;;;;10.70;3.05;;;;;;;33.38;36.00;95812.16;5079962;28;20094;-57
2022/08/16 10:17:04;;;;;;;4.88;2.78;;;;;;;33.01;36.09;95803.91;5089424;28;20095;-57
2022/08/16 10:19:32;;;;;;;3.50;3.00;;;;;;;33.58;36.32;95803.53;5083397;28;20091;-52
2022/08/16 10:22:01;;;;;;;3.58;2.78;;;;;;;32.96;36.21;95798.53;5088445;28;20079;-56
2022/08/16 10:24:33;;;;;;;4.25;2.85;;;;;;;33.98;35.18;95806.47;5083312;28;20095;-58
2022/08/16 10:27:01;;;;;;;7.72;2.90;;;;;;;33.65;35.46;95808.59;5075996;28;20084;-57
2022/08/16 10:29:51;;;;;;;4.18;2.90;;;;;;;33.86;35.07;95801.53;5068642;28;20549;-55
2022/08/16 10:32:34;;;;;;;5.50;2.67;;;;;;;34.20;34.66;95806.47;5086099;28;20518;-53
2022/08/16 10:35:07;;;;;;;2.92;2.60;;;;;;;34.63;34.05;95794.19;5089782;28;20087;-56
2022/08/16 10:37:36;;;;;;;4.28;2.50;;;;;;;34.50;33.85;95793.13;5074575;28;20040;-52
2022/08/16 10:40:08;;;;;;;3.65;2.70;;;;;;;34.33;34.03;95784.81;5087682;28;20076;-56
2022/08/16 10:42:58;;;;;;;4.35;2.72;;;;;;;33.54;34.43;95797.06;5077793;28;20467;-55
2022/08/16 10:45:30;;;;;;;4.57;3.20;;;;;;;34.12;34.09;95790.81;5085800;28;20474;-57
2022/08/16 10:48:06;;;;;;;3.83;2.95;;;;;;;34.12;33.76;95790.81;5088747;28;20087;-54
2022/08/16 10:50:56;;;;;;;3.97;2.70;;;;;;;34.06;33.84;95780.31;5082168;28;20079;-55
2022/08/16 10:53:26;;;;;;;4.75;2.72;;;;;;;32.97;34.27;95783.78;5086423;28;20076;-55
2022/08/16 10:56:01;;;;;;;7.22;2.97;;;;;;;34.28;32.97;95774.81;5081266;28;20095;-57
2022/08/16 10:58:30;;;;;;;3.05;2.72;;;;;;;34.83;32.12;95777.22;5086463;28;20545;-55
2022/08/16 11:01:05;;;;;;;4.45;2.50;;;;;;;35.28;31.54;95778.97;5081607;28;20531;-57
2022/08/16 11:03:53;;;;;;;4.32;2.83;;;;;;;34.62;32.81;95784.34;5076299;28;20514;-55
2022/08/16 11:06:25;;;;;;;4.63;2.88;;;;;;;35.49;31.73;95782.72;5084632;28;20079;-58
2022/08/16 11:08:57;;;;;;;5.20;2.97;;;;;;;36.34;29.65;95790.47;5082756;28;20072;-56
2022/08/16 11:11:46;;;;;;;6.57;3.00;;;;;;;35.67;30.35;95789.84;5087909;28;20675;-55
2022/08/16 11:14:34;;;;;;;3.40;2.67;;;;;;;35.63;30.56;95793.56;5075486;28;20547;-50
2022/08/16 11:17:09;;;;;;;4.82;2.83;;;;;;;34.65;31.75;95779.09;5068901;28;20555;-57
2022/08/16 11:19:40;;;;;;;5.93;2.53;;;;;;;33.91;31.76;95795.94;5082384;28;20079;-56
2022/08/16 11:22:28;;;;;;;4.78;2.80;;;;;;;34.92;31.09;95780.78;5084500;28;20095;-55
2022/08/16 11:25:18;;;;;;;6.07;2.80;;;;;;;35.64;30.85;95790.50;5082050;28;20087;-56
2022/08/16 11:28:07;;;;;;;3.95;2.80;;;;;;;35.64;30.41;95781.47;5084118;28;20071;-56
2022/08/16 11:30:37;;;;;;;7.45;3.20;;;;;;;35.93;30.21;95788.22;5087429;28;20094;-59
2022/08/16 11:33:08;;;;;;;6.60;3.00;;;;;;;35.75;29.71;95792.91;5086558;28;20083;-58
2022/08/16 11:35:39;;;;;;;5.88;3.03;;;;;;;36.09;30.39;95797.63;5081354;28;20102;-57
2022/08/16 11:38:14;;;;;;;5.82;2.90;;;;;;;33.79;31.71;95799.25;5077186;28;20095;-54
2022/08/16 11:41:02;;;;;;;5.25;3.22;;;;;;;34.30;31.73;95796.41;5068840;28;20087;-54
2022/08/16 11:43:33;;;;;;;5.95;2.83;;;;;;;34.95;31.19;95791.09;5084750;28;20538;-55
2022/08/16 11:46:05;;;;;;;5.53;3.20;;;;;;;34.83;31.39;95790.91;5083583;28;20094;-54
2022/08/16 11:48:54;;;;;;;4.80;3.00;;;;;;;35.38;31.11;95787.72;5075204;28;20082;-55
2022/08/16 11:51:23;;;;;;;;;;;;;;;35.93;29.91;95785.47;5081599;28;20473;-55
2022/08/16 11:53:51;;;;;;;5.68;2.95;;;;;;;34.52;31.55;95779.97;5069700;28;20387;-56
2022/08/16 11:56:20;;;;;;;4.40;2.80;;;;;;;34.69;31.36;95780.06;5068961;28;20533;-56
2022/08/16 11:59:09;;;;;;;3.90;2.80;;;;;;;33.98;31.65;95784.56;5082308;28;20087;-54
2022/08/16 12:01:40;;;;;;;5.78;3.25;;;;;;;35.26;30.78;95779.28;5076296;28;20064;-53
2022/08/16 12:04:24;;;;;;;6.20;2.92;;;;;;;35.94;30.05;95773.41;5086189;28;20095;-55
2022/08/16 12:06:53;;;;;;;7.05;3.08;;;;;;;36.50;29.01;95775.09;5077988;28;20083;-55
2022/08/16 12:09:22;;;;;;;4.53;2.80;;;;;;;36.66;29.37;95763.59;5089615;28;20084;-56
2022/08/16 12:11:52;;;;;;;5.03;3.28;;;;;;;36.49;28.49;95767.22;5086480;28;20092;-58
2022/08/16 12:14:20;;;;;;;4.55;2.83;;;;;;;35.42;30.11;95774.16;5085518;28;20084;-55